sensor_id;sensor_type;location;lat;lon;timestamp;pressure;altitude;pressure_sealevel;temperature;humidity
4586;BME280;2305;50.118;8.952;2022-10-22T00:01:06;100193.69;;;15.39;100.00
4586;BME280;2305;50.118;8.952;2022-10-22T00:03:36;100191.88;;;15.39;100.00
4586;BME280;2305;50.118;8.952;2022-10-22T00:06:04;100196.66;;;15.36;100.00
4586;BME280;2305;50.118;8.952;2022-10-22T00:08:32;100198.50;;;15.35;100.00
4586;BME280;2305;50.118;8.952;2022-10-22T00:11:11;100203.47;;;15.38;100.00
4586;BME280;2305;50.118;8.952;2022-10-22T00:13:41;100195.16;;;15.33;100.00
4586;BME280;2305;50.118;8.952;2022-10-22T00:16:09;100192.19;;;15.36;100.00
4586;BME280;2305;50.118;8.952;2022-10-22T00:18:40;100182.38;;;15.37;100.00
4586;BME280;2305;50.118;8.952;2022-10-22T00:21:11;100185.75;;;15.39;100.00
4586;BME280;2305;50.118;8.952;2022-10-22T00:23:39;100180.44;;;15.39;100.00
4586;BME280;2305;50.118;8.952;2022-10-22T00:26:08;100168.81;;;15.40;100.00
4586;BME280;2305;50.118;8.952;2022-10-22T00:28:36;100172.78;;;15.44;100.00
4586;BME280;2305;50.118;8.952;2022-10-22T00:31:05;100179.47;;;15.48;100.00
4586;BME280;2305;50.118;8.952;2022-10-22T00:33:33;100175.66;;;15.50;100.00
4586;BME280;2305;50.118;8.952;2022-10-22T00:36:01;100171.88;;;15.53;100.00
4586;BME280;2305;50.118;8.952;2022-10-22T00:38:29;100178.66;;;15.55;100.00
4586;BME280;2305;50.118;8.952;2022-10-22T00:40:57;100174.19;;;15.56;100.00
4586;BME280;2305;50.118;8.952;2022-10-22T00:43:26;100166.22;;;15.56;100.00
4586;BME280;2305;50.118;8.952;2022-10-22T00:45:54;100164.41;;;15.56;100.00
4586;BME280;2305;50.118;8.952;2022-10-22T00:48:26;100170.38;;;15.58;100.00
4586;BME280;2305;50.118;8.952;2022-10-22T00:50:57;100162.41;;;15.58;100.00
4586;BME280;2305;50.118;8.952;2022-10-22T00:53:29;100154.28;;;15.60;100.00
4586;BME280;2305;50.118;8.952;2022-10-22T00:55:58;100150.78;;;15.59;100.00
4586;BME280;2305;50.118;8.952;2022-10-22T00:58:28;100160.28;;;15.62;100.00
4586;BME280;2305;50.118;8.952;2022-10-22T01:00:57;100160.41;;;15.60;100.00
4586;BME280;2305;50.118;8.952;2022-10-22T01:03:27;100153.28;;;15.61;100.00
4586;BME280;2305;50.118;8.952;2022-10-22T01:05:57;100153.28;;;15.61;100.00
4586;BME280;2305;50.118;8.952;2022-10-22T01:08:36;100142.66;;;15.61;100.00
4586;BME280;2305;50.118;8.952;2022-10-22T01:11:12;100142.97;;;15.58;100.00
4586;BME280;2305;50.118;8.952;2022-10-22T01:13:50;100149.44;;;15.55;100.00
4586;BME280;2305;50.118;8.952;2022-10-22T01:16:28;100152.09;;;15.55;100.00
4586;BME280;2305;50.118;8.952;2022-10-22T01:19:12;100162.56;;;15.57;100.00
4586;BME280;2305;50.118;8.952;2022-10-22T01:21:46;100172.19;;;15.58;100.00
4586;BME280;2305;50.118;8.952;2022-10-22T01:24:25;100166.88;;;15.58;100.00
4586;BME280;2305;50.118;8.952;2022-10-22T01:27:28;100163.22;;;15.59;100.00
4586;BME280;2305;50.118;8.952;2022-10-22T01:30:01;100150.94;;;15.58;100.00
4586;BME280;2305;50.118;8.952;2022-10-22T01:32:33;100163.91;;;15.61;100.00
4586;BME280;2305;50.118;8.952;2022-10-22T01:35:06;100160.41;;;15.60;100.00
4586;BME280;2305;50.118;8.952;2022-10-22T01:37:39;100158.91;;;15.58;100.00
4586;BME280;2305;50.118;8.952;2022-10-22T01:40:09;100168.22;;;15.54;100.00
4586;BME280;2305;50.118;8.952;2022-10-22T01:42:38;100161.88;;;15.47;100.00
4586;BME280;2305;50.118;8.952;2022-10-22T01:45:12;100159.38;;;15.45;100.00
4586;BME280;2305;50.118;8.952;2022-10-22T01:47:47;100167.66;;;15.42;100.00
4586;BME280;2305;50.118;8.952;2022-10-22T01:50:40;100168.81;;;15.40;100.00
4586;BME280;2305;50.118;8.952;2022-10-22T01:53:20;100167.16;;;15.39;100.00
4586;BME280;2305;50.118;8.952;2022-10-22T01:56:11;100164.81;;;15.36;100.00
4586;BME280;2305;50.118;8.952;2022-10-22T01:58:50;100164.81;;;15.36;100.00
4586;BME280;2305;50.118;8.952;2022-10-22T02:01:30;100168.59;;;15.33;100.00
4586;BME280;2305;50.118;8.952;2022-10-22T02:04:10;100193.50;;;15.32;100.00
4586;BME280;2305;50.118;8.952;2022-10-22T02:06:41;100195.16;;;15.33;100.00
4586;BME280;2305;50.118;8.952;2022-10-22T02:09:14;100187.47;;;15.30;100.00
4586;BME280;2305;50.118;8.952;2022-10-22T02:11:45;100199.78;;;15.31;100.00
4586;BME280;2305;50.118;8.952;2022-10-22T02:14:15;100193.34;;;15.34;100.00
4586;BME280;2305;50.118;8.952;2022-10-22T02:16:49;100201.31;;;15.34;100.00
4586;BME280;2305;50.118;8.952;2022-10-22T02:19:22;100210.13;;;15.34;100.00
4586;BME280;2305;50.118;8.952;2022-10-22T02:21:51;100203.63;;;15.37;100.00
4586;BME280;2305;50.118;8.952;2022-10-22T02:24:20;100198.66;;;15.34;100.00
4586;BME280;2305;50.118;8.952;2022-10-22T02:26:53;100191.69;;;15.33;100.00
4586;BME280;2305;50.118;8.952;2022-10-22T02:29:29;100184.53;;;15.33;100.00
4586;BME280;2305;50.118;8.952;2022-10-22T02:32:02;100182.31;;;15.29;100.00
4586;BME280;2305;50.118;8.952;2022-10-22T02:34:32;100187.47;;;15.30;100.00
4586;BME280;2305;50.118;8.952;2022-10-22T02:37:01;100196.59;;;15.28;100.00
4586;BME280;2305;50.118;8.952;2022-10-22T02:39:30;100210.00;;;15.26;100.00
4586;BME280;2305;50.118;8.952;2022-10-22T02:42:00;100208.81;;;15.21;100.00
4586;BME280;2305;50.118;8.952;2022-10-22T02:44:28;100212.47;;;15.20;100.00
4586;BME280;2305;50.118;8.952;2022-10-22T02:46:56;100217.97;;;15.26;100.00
4586;BME280;2305;50.118;8.952;2022-10-22T02:49:26;100219.66;;;15.27;100.00
4586;BME280;2305;50.118;8.952;2022-10-22T02:51:54;100211.69;;;15.27;100.00
4586;BME280;2305;50.118;8.952;2022-10-22T02:54:22;100217.16;;;15.26;100.00
4586;BME280;2305;50.118;8.952;2022-10-22T02:56:50;100220.81;;;15.25;100.00
4586;BME280;2305;50.118;8.952;2022-10-22T02:59:18;100222.25;;;15.19;100.00
4586;BME280;2305;50.118;8.952;2022-10-22T03:01:46;100214.13;;;15.21;100.00
4586;BME280;2305;50.118;8.952;2022-10-22T03:04:14;100208.53;;;15.24;100.00
4586;BME280;2305;50.118;8.952;2022-10-22T03:06:43;100205.69;;;15.25;100.00
4586;BME280;2305;50.118;8.952;2022-10-22T03:09:14;100204.56;;;15.28;100.00
4586;BME280;2305;50.118;8.952;2022-10-22T03:11:45;100217.53;;;15.31;100.00
4586;BME280;2305;50.118;8.952;2022-10-22T03:14:13;100219.22;;;15.32;100.00
4586;BME280;2305;50.118;8.952;2022-10-22T03:16:41;100219.88;;;15.34;100.00
4586;BME280;2305;50.118;8.952;2022-10-22T03:19:09;100235.50;;;15.37;100.00
4586;BME280;2305;50.118;8.952;2022-10-22T03:21:43;100236.34;;;15.37;100.00
4586;BME280;2305;50.118;8.952;2022-10-22T03:24:15;100250.59;;;15.36;100.00
4586;BME280;2305;50.118;8.952;2022-10-22T03:26:45;100258.72;;;15.35;100.00
4586;BME280;2305;50.118;8.952;2022-10-22T03:29:15;100260.38;;;15.36;100.00
4586;BME280;2305;50.118;8.952;2022-10-22T03:31:43;100266.69;;;15.35;100.00
4586;BME280;2305;50.118;8.952;2022-10-22T03:34:11;100256.22;;;15.33;100.00
4586;BME280;2305;50.118;8.952;2022-10-22T03:36:39;100261.69;;;15.32;100.00
4586;BME280;2305;50.118;8.952;2022-10-22T03:39:11;100260.16;;;15.29;100.00
4586;BME280;2305;50.118;8.952;2022-10-22T03:41:40;100246.38;;;15.26;100.00
4586;BME280;2305;50.118;8.952;2022-10-22T03:44:08;100250.69;;;15.27;100.00
4586;BME280;2305;50.118;8.952;2022-10-22T03:46:36;100257.66;;;15.28;100.00
4586;BME280;2305;50.118;8.952;2022-10-22T03:49:04;100259.31;;;15.29;100.00
4586;BME280;2305;50.118;8.952;2022-10-22T03:51:32;100268.81;;;15.31;100.00
4586;BME280;2305;50.118;8.952;2022-10-22T03:54:01;100274.25;;;15.30;100.00
4586;BME280;2305;50.118;8.952;2022-10-22T03:56:31;100275.78;;;15.32;100.00
4586;BME280;2305;50.118;8.952;2022-10-22T03:58:59;100277.63;;;15.32;100.00
4586;BME280;2305;50.118;8.952;2022-10-22T04:01:29;100281.81;;;15.34;100.00
4586;BME280;2305;50.118;8.952;2022-10-22T04:03:57;100277.63;;;15.32;100.00
4586;BME280;2305;50.118;8.952;2022-10-22T04:06:28;100280.28;;;15.32;100.00
4586;BME280;2305;50.118;8.952;2022-10-22T04:08:58;100277.63;;;15.32;100.00
4586;BME280;2305;50.118;8.952;2022-10-22T04:11:26;100290.59;;;15.35;100.00
4586;BME280;2305;50.118;8.952;2022-10-22T04:13:55;100280.28;;;15.32;100.00
4586;BME280;2305;50.118;8.952;2022-10-22T04:16:26;100281.09;;;15.32;100.00
4586;BME280;2305;50.118;8.952;2022-10-22T04:18:56;100294.38;;;15.32;100.00
4586;BME280;2305;50.118;8.952;2022-10-22T04:21:24;100301.53;;;15.32;100.00
4586;BME280;2305;50.118;8.952;2022-10-22T04:23:52;100305.44;;;15.28;100.00
4586;BME280;2305;50.118;8.952;2022-10-22T04:26:20;100299.97;;;15.29;100.00
4586;BME280;2305;50.118;8.952;2022-10-22T04:28:49;100296.47;;;15.29;100.00
4586;BME280;2305;50.118;8.952;2022-10-22T04:31:20;100295.13;;;15.25;100.00
4586;BME280;2305;50.118;8.952;2022-10-22T04:33:51;100293.47;;;15.24;100.00
4586;BME280;2305;50.118;8.952;2022-10-22T04:36:20;100293.47;;;15.24;100.00
4586;BME280;2305;50.118;8.952;2022-10-22T04:38:52;100296.41;;;15.21;100.00
4586;BME280;2305;50.118;8.952;2022-10-22T04:41:22;100304.38;;;15.21;100.00
4586;BME280;2305;50.118;8.952;2022-10-22T04:43:52;100304.91;;;15.24;100.00
4586;BME280;2305;50.118;8.952;2022-10-22T04:46:22;100301.25;;;15.25;100.00
4586;BME280;2305;50.118;8.952;2022-10-22T04:48:50;100300.44;;;15.25;100.00
4586;BME280;2305;50.118;8.952;2022-10-22T04:51:20;100298.47;;;15.27;100.00
4586;BME280;2305;50.118;8.952;2022-10-22T04:53:51;100301.78;;;15.29;100.00
4586;BME280;2305;50.118;8.952;2022-10-22T04:56:21;100294.00;;;15.27;100.00
4586;BME280;2305;50.118;8.952;2022-10-22T04:58:54;100296.34;;;15.30;100.00
4586;BME280;2305;50.118;8.952;2022-10-22T05:01:25;100298.13;;;15.30;100.00
4586;BME280;2305;50.118;8.952;2022-10-22T05:03:54;100297.19;;;15.31;100.00
4586;BME280;2305;50.118;8.952;2022-10-22T05:06:23;100301.13;;;15.27;100.00
4586;BME280;2305;50.118;8.952;2022-10-22T05:08:52;100300.28;;;15.26;100.00
4586;BME280;2305;50.118;8.952;2022-10-22T05:11:22;100299.31;;;15.27;100.00
4586;BME280;2305;50.118;8.952;2022-10-22T05:13:51;100305.13;;;15.31;100.00
4586;BME280;2305;50.118;8.952;2022-10-22T05:16:19;100301.19;;;15.35;100.00
4586;BME280;2305;50.118;8.952;2022-10-22T05:18:48;100303.34;;;15.31;100.00
4586;BME280;2305;50.118;8.952;2022-10-22T05:21:17;100309.09;;;15.27;100.00
4586;BME280;2305;50.118;8.952;2022-10-22T05:23:47;100308.75;;;15.30;100.00
4586;BME280;2305;50.118;8.952;2022-10-22T05:26:18;100310.59;;;15.29;100.00
4586;BME280;2305;50.118;8.952;2022-10-22T05:28:48;100320.38;;;15.29;100.00
4586;BME280;2305;50.118;8.952;2022-10-22T05:31:17;100321.50;;;15.26;100.00
4586;BME280;2305;50.118;8.952;2022-10-22T05:33:45;100324.34;;;15.25;100.00
4586;BME280;2305;50.118;8.952;2022-10-22T05:36:17;100316.91;;;15.28;100.00
4586;BME280;2305;50.118;8.952;2022-10-22T05:38:45;100321.91;;;15.31;100.00
4586;BME280;2305;50.118;8.952;2022-10-22T05:41:17;100337.38;;;15.36;100.00
4586;BME280;2305;50.118;8.952;2022-10-22T05:43:48;100335.31;;;15.30;100.00
4586;BME280;2305;50.118;8.952;2022-10-22T05:46:18;100351.78;;;15.33;100.00
4586;BME280;2305;50.118;8.952;2022-10-22T05:48:49;100338.22;;;15.36;100.00
4586;BME280;2305;50.118;8.952;2022-10-22T05:51:19;100344.00;;;15.32;100.00
4586;BME280;2305;50.118;8.952;2022-10-22T05:53:51;100345.66;;;15.33;100.00
4586;BME280;2305;50.118;8.952;2022-10-22T05:56:20;100351.78;;;15.33;100.00
4586;BME280;2305;50.118;8.952;2022-10-22T05:58:48;100350.84;;;15.34;100.00
4586;BME280;2305;50.118;8.952;2022-10-22T06:01:18;100352.31;;;15.37;100.00
4586;BME280;2305;50.118;8.952;2022-10-22T06:03:46;100357.53;;;15.29;100.00
4586;BME280;2305;50.118;8.952;2022-10-22T06:06:19;100356.53;;;15.30;100.00
4586;BME280;2305;50.118;8.952;2022-10-22T06:08:51;100364.94;;;15.35;100.00
4586;BME280;2305;50.118;8.952;2022-10-22T06:11:20;100367.44;;;15.36;100.00
4586;BME280;2305;50.118;8.952;2022-10-22T06:13:50;100376.91;;;15.39;100.00
4586;BME280;2305;50.118;8.952;2022-10-22T06:16:18;100378.25;;;15.43;100.00
4586;BME280;2305;50.118;8.952;2022-10-22T06:18:46;100389.66;;;15.35;100.00
4586;BME280;2305;50.118;8.952;2022-10-22T06:21:14;100383.09;;;15.30;100.00
4586;BME280;2305;50.118;8.952;2022-10-22T06:23:44;100390.25;;;15.29;100.00
4586;BME280;2305;50.118;8.952;2022-10-22T06:26:12;100395.78;;;15.36;100.00
4586;BME280;2305;50.118;8.952;2022-10-22T06:28:40;100396.47;;;15.38;100.00
4586;BME280;2305;50.118;8.952;2022-10-22T06:31:08;100399.97;;;15.38;100.00
4586;BME280;2305;50.118;8.952;2022-10-22T06:33:36;100399.81;;;15.40;100.00
4586;BME280;2305;50.118;8.952;2022-10-22T06:36:10;100403.47;;;15.39;100.00
4586;BME280;2305;50.118;8.952;2022-10-22T06:38:38;100408.78;;;15.39;100.00
4586;BME280;2305;50.118;8.952;2022-10-22T06:41:10;100415.75;;;15.40;100.00
4586;BME280;2305;50.118;8.952;2022-10-22T06:43:38;100413.63;;;15.43;100.00
4586;BME280;2305;50.118;8.952;2022-10-22T06:46:08;100428.56;;;15.44;100.00
4586;BME280;2305;50.118;8.952;2022-10-22T06:48:47;100416.81;;;15.47;100.00
4586;BME280;2305;50.118;8.952;2022-10-22T06:51:16;100421.28;;;15.46;100.00
4586;BME280;2305;50.118;8.952;2022-10-22T06:53:44;100420.75;;;15.43;100.00
4586;BME280;2305;50.118;8.952;2022-10-22T06:56:15;100426.13;;;15.33;100.00
4586;BME280;2305;50.118;8.952;2022-10-22T06:58:45;100428.53;;;15.27;100.00
4586;BME280;2305;50.118;8.952;2022-10-22T07:01:15;100440.16;;;15.26;100.00
4586;BME280;2305;50.118;8.952;2022-10-22T07:03:43;100441.97;;;15.25;100.00
4586;BME280;2305;50.118;8.952;2022-10-22T07:06:13;100435.97;;;15.23;100.00
4586;BME280;2305;50.118;8.952;2022-10-22T07:08:42;100437.34;;;15.27;100.00
4586;BME280;2305;50.118;8.952;2022-10-22T07:11:12;100441.97;;;15.25;100.00
4586;BME280;2305;50.118;8.952;2022-10-22T07:13:42;100442.13;;;15.24;100.00
4586;BME280;2305;50.118;8.952;2022-10-22T07:16:10;100451.06;;;15.23;100.00
4586;BME280;2305;50.118;8.952;2022-10-22T07:18:39;100457.53;;;15.20;100.00
4586;BME280;2305;50.118;8.952;2022-10-22T07:21:09;100468.69;;;15.24;100.00
4586;BME280;2305;50.118;8.952;2022-10-22T07:23:37;100465.84;;;15.25;100.00
4586;BME280;2305;50.118;8.952;2022-10-22T07:26:06;100477.00;;;15.29;100.00
4586;BME280;2305;50.118;8.952;2022-10-22T07:28:36;100486.53;;;15.31;100.00
4586;BME280;2305;50.118;8.952;2022-10-22T07:31:08;100486.59;;;15.39;100.00
4586;BME280;2305;50.118;8.952;2022-10-22T07:33:36;100496.63;;;15.45;100.00
4586;BME280;2305;50.118;8.952;2022-10-22T07:36:06;100493.97;;;15.45;100.00
4586;BME280;2305;50.118;8.952;2022-10-22T07:38:35;100502.63;;;15.47;100.00
4586;BME280;2305;50.118;8.952;2022-10-22T07:41:03;100499.50;;;15.52;100.00
4586;BME280;2305;50.118;8.952;2022-10-22T07:43:31;100502.53;;;15.57;100.00
4586;BME280;2305;50.118;8.952;2022-10-22T07:45:59;100497.75;;;15.60;100.00
4586;BME280;2305;50.118;8.952;2022-10-22T07:48:32;100493.22;;;15.70;100.00
4586;BME280;2305;50.118;8.952;2022-10-22T07:51:00;100511.34;;;15.75;100.00
4586;BME280;2305;50.118;8.952;2022-10-22T07:53:28;100512.09;;;15.85;100.00
4586;BME280;2305;50.118;8.952;2022-10-22T07:55:56;100508.63;;;15.84;100.00
4586;BME280;2305;50.118;8.952;2022-10-22T07:58:24;100512.47;;;15.90;100.00
4586;BME280;2305;50.118;8.952;2022-10-22T08:00:54;100508.50;;;15.94;100.00
4586;BME280;2305;50.118;8.952;2022-10-22T08:03:23;100514.66;;;15.94;100.00
4586;BME280;2305;50.118;8.952;2022-10-22T08:05:52;100524.00;;;15.98;100.00
4586;BME280;2305;50.118;8.952;2022-10-22T08:08:21;100521.84;;;16.02;100.00
4586;BME280;2305;50.118;8.952;2022-10-22T08:10:54;100524.22;;;16.05;100.00
4586;BME280;2305;50.118;8.952;2022-10-22T08:13:24;100522.28;;;16.15;100.00
4586;BME280;2305;50.118;8.952;2022-10-22T08:15:53;100520.06;;;16.28;100.00
4586;BME280;2305;50.118;8.952;2022-10-22T08:18:23;100515.88;;;16.25;100.00
4586;BME280;2305;50.118;8.952;2022-10-22T08:20:55;100525.31;;;16.37;100.00
4586;BME280;2305;50.118;8.952;2022-10-22T08:23:23;100515.63;;;16.36;100.00
4586;BME280;2305;50.118;8.952;2022-10-22T08:25:54;100521.09;;;16.35;100.00
4586;BME280;2305;50.118;8.952;2022-10-22T08:28:22;100517.19;;;16.39;100.00
4586;BME280;2305;50.118;8.952;2022-10-22T08:30:50;100522.16;;;16.42;100.00
4586;BME280;2305;50.118;8.952;2022-10-22T08:33:18;100530.59;;;16.63;100.00
4586;BME280;2305;50.118;8.952;2022-10-22T08:35:47;100532.22;;;16.56;100.00
4586;BME280;2305;50.118;8.952;2022-10-22T08:38:17;100533.28;;;16.71;100.00
4586;BME280;2305;50.118;8.952;2022-10-22T08:40:48;100531.50;;;16.71;100.00
4586;BME280;2305;50.118;8.952;2022-10-22T08:43:33;100529.84;;;16.78;100.00
4586;BME280;2305;50.118;8.952;2022-10-22T08:46:14;100534.03;;;16.81;100.00
4586;BME280;2305;50.118;8.952;2022-10-22T08:48:50;100530.56;;;16.88;100.00
4586;BME280;2305;50.118;8.952;2022-10-22T08:51:20;100544.78;;;17.05;100.00
4586;BME280;2305;50.118;8.952;2022-10-22T08:54:05;100536.44;;;17.08;100.00
4586;BME280;2305;50.118;8.952;2022-10-22T08:56:38;100548.78;;;17.09;100.00
4586;BME280;2305;50.118;8.952;2022-10-22T08:59:13;100552.28;;;17.17;100.00
4586;BME280;2305;50.118;8.952;2022-10-22T09:01:46;100553.34;;;17.32;100.00
4586;BME280;2305;50.118;8.952;2022-10-22T09:04:18;100551.78;;;17.55;100.00
4586;BME280;2305;50.118;8.952;2022-10-22T09:06:51;100553.63;;;17.63;100.00
4586;BME280;2305;50.118;8.952;2022-10-22T09:09:25;100553.63;;;17.79;100.00
4586;BME280;2305;50.118;8.952;2022-10-22T09:11:56;100563.81;;;17.99;100.00
4586;BME280;2305;50.118;8.952;2022-10-22T09:14:25;100559.66;;;17.97;100.00
4586;BME280;2305;50.118;8.952;2022-10-22T09:17:11;100564.97;;;18.05;100.00
4586;BME280;2305;50.118;8.952;2022-10-22T09:19:50;100558.47;;;18.07;100.00
4586;BME280;2305;50.118;8.952;2022-10-22T09:22:29;100554.31;;;18.13;100.00
4586;BME280;2305;50.118;8.952;2022-10-22T09:25:15;100559.63;;;18.13;100.00
4586;BME280;2305;50.118;8.952;2022-10-22T09:27:46;100557.31;;;18.10;100.00
4586;BME280;2305;50.118;8.952;2022-10-22T09:30:16;100554.66;;;18.10;100.00
4586;BME280;2305;50.118;8.952;2022-10-22T09:32:44;100561.13;;;18.23;100.00
4586;BME280;2305;50.118;8.952;2022-10-22T09:35:13;100564.97;;;18.29;100.00
4586;BME280;2305;50.118;8.952;2022-10-22T09:37:50;100567.00;;;18.35;100.00
4586;BME280;2305;50.118;8.952;2022-10-22T09:40:20;100570.34;;;18.37;100.00
4586;BME280;2305;50.118;8.952;2022-10-22T09:42:48;100564.31;;;18.35;100.00
4586;BME280;2305;50.118;8.952;2022-10-22T09:45:20;100566.66;;;18.38;100.00
4586;BME280;2305;50.118;8.952;2022-10-22T09:48:03;100567.16;;;18.41;100.00
4586;BME280;2305;50.118;8.952;2022-10-22T09:50:41;100582.00;;;18.44;100.00
4586;BME280;2305;50.118;8.952;2022-10-22T09:53:13;100576.16;;;18.48;100.00
4586;BME280;2305;50.118;8.952;2022-10-22T09:55:49;100570.63;;;18.50;100.00
4586;BME280;2305;50.118;8.952;2022-10-22T09:58:18;100578.31;;;18.61;100.00
4586;BME280;2305;50.118;8.952;2022-10-22T10:00:51;100578.44;;;18.67;100.00
4586;BME280;2305;50.118;8.952;2022-10-22T10:03:22;100584.13;;;18.72;100.00
4586;BME280;2305;50.118;8.952;2022-10-22T10:05:53;100580.09;;;18.68;100.00
4586;BME280;2305;50.118;8.952;2022-10-22T10:08:24;100582.78;;;18.76;100.00
4586;BME280;2305;50.118;8.952;2022-10-22T10:10:57;100589.59;;;18.78;100.00
4586;BME280;2305;50.118;8.952;2022-10-22T10:13:36;100591.09;;;18.81;100.00
4586;BME280;2305;50.118;8.952;2022-10-22T10:16:19;100591.59;;;18.84;100.00
4586;BME280;2305;50.118;8.952;2022-10-22T10:19:08;100596.91;;;18.92;100.00
4586;BME280;2305;50.118;8.952;2022-10-22T10:21:47;100587.22;;;18.91;100.00
4586;BME280;2305;50.118;8.952;2022-10-22T10:24:22;100583.72;;;18.99;100.00
4586;BME280;2305;50.118;8.952;2022-10-22T10:26:59;100578.84;;;19.02;100.00
4586;BME280;2305;50.118;8.952;2022-10-22T10:29:38;100584.84;;;19.04;100.00
4586;BME280;2305;50.118;8.952;2022-10-22T10:32:22;100586.34;;;19.07;100.00
4586;BME280;2305;50.118;8.952;2022-10-22T10:35:02;100577.00;;;19.11;100.00
4586;BME280;2305;50.118;8.952;2022-10-22T10:37:38;100579.97;;;19.16;100.00
4586;BME280;2305;50.118;8.952;2022-10-22T10:40:20;100591.00;;;19.21;100.00
4586;BME280;2305;50.118;8.952;2022-10-22T10:42:56;100584.13;;;19.26;100.00
4586;BME280;2305;50.118;8.952;2022-10-22T10:45:30;100586.75;;;19.34;100.00
4586;BME280;2305;50.118;8.952;2022-10-22T10:48:08;100592.41;;;19.39;100.00
4586;BME280;2305;50.118;8.952;2022-10-22T10:50:49;100587.06;;;19.39;100.00
4586;BME280;2305;50.118;8.952;2022-10-22T10:53:28;100586.69;;;19.42;100.00
4586;BME280;2305;50.118;8.952;2022-10-22T10:56:08;100579.38;;;19.44;100.00
4586;BME280;2305;50.118;8.952;2022-10-22T10:58:48;100578.00;;;19.48;100.00
4586;BME280;2305;50.118;8.952;2022-10-22T11:01:26;100575.09;;;19.58;100.00
4586;BME280;2305;50.118;8.952;2022-10-22T11:04:13;100572.50;;;19.72;100.00
4586;BME280;2305;50.118;8.952;2022-10-22T11:06:49;100569.19;;;19.93;100.00
4586;BME280;2305;50.118;8.952;2022-10-22T11:09:29;100565.16;;;19.97;100.00
4586;BME280;2305;50.118;8.952;2022-10-22T11:12:05;100573.66;;;20.00;100.00
4586;BME280;2305;50.118;8.952;2022-10-22T11:14:44;100563.38;;;20.12;100.00
4586;BME280;2305;50.118;8.952;2022-10-22T11:17:17;100556.56;;;20.24;100.00
4586;BME280;2305;50.118;8.952;2022-10-22T11:19:50;100563.41;;;20.26;100.00
4586;BME280;2305;50.118;8.952;2022-10-22T11:22:28;100557.81;;;20.36;100.00
4586;BME280;2305;50.118;8.952;2022-10-22T11:25:02;100560.69;;;20.49;100.00
4586;BME280;2305;50.118;8.952;2022-10-22T11:27:37;100556.16;;;20.49;100.00
4586;BME280;2305;50.118;8.952;2022-10-22T11:30:12;100568.25;;;20.60;100.00
4586;BME280;2305;50.118;8.952;2022-10-22T11:32:42;100557.56;;;20.74;100.00
4586;BME280;2305;50.118;8.952;2022-10-22T11:35:14;100560.94;;;20.91;100.00
4586;BME280;2305;50.118;8.952;2022-10-22T11:37:46;100558.03;;;20.78;100.00
4586;BME280;2305;50.118;8.952;2022-10-22T11:40:18;100557.00;;;20.79;100.00
4586;BME280;2305;50.118;8.952;2022-10-22T11:42:49;100558.75;;;20.72;100.00
4586;BME280;2305;50.118;8.952;2022-10-22T11:45:29;100565.13;;;20.56;100.00
4586;BME280;2305;50.118;8.952;2022-10-22T11:48:06;100558.09;;;20.41;100.00
4586;BME280;2305;50.118;8.952;2022-10-22T11:50:47;100559.00;;;20.33;100.00
4586;BME280;2305;50.118;8.952;2022-10-22T11:53:18;100559.13;;;20.17;100.00
4586;BME280;2305;50.118;8.952;2022-10-22T11:55:47;100551.03;;;20.11;100.00
4586;BME280;2305;50.118;8.952;2022-10-22T11:58:41;100547.66;;;20.09;100.00
4586;BME280;2305;50.118;8.952;2022-10-22T12:01:29;100555.44;;;20.18;100.00
4586;BME280;2305;50.118;8.952;2022-10-22T12:04:21;100559.91;;;20.26;100.00
4586;BME280;2305;50.118;8.952;2022-10-22T12:06:57;100556.94;;;20.21;100.00
4586;BME280;2305;50.118;8.952;2022-10-22T12:09:28;100565.25;;;20.26;100.00
4586;BME280;2305;50.118;8.952;2022-10-22T12:12:12;100552.56;;;20.42;100.00
4586;BME280;2305;50.118;8.952;2022-10-22T12:14:52;100556.47;;;20.69;100.00
4586;BME280;2305;50.118;8.952;2022-10-22T12:17:22;100548.75;;;21.03;100.00
4586;BME280;2305;50.118;8.952;2022-10-22T12:19:57;100550.53;;;21.31;100.00
4586;BME280;2305;50.118;8.952;2022-10-22T12:22:29;100546.41;;;21.50;100.00
4586;BME280;2305;50.118;8.952;2022-10-22T12:25:00;100549.28;;;21.48;100.00
4586;BME280;2305;50.118;8.952;2022-10-22T12:27:34;100550.97;;;21.49;100.00
4586;BME280;2305;50.118;8.952;2022-10-22T12:30:16;100546.06;;;21.38;100.00
4586;BME280;2305;50.118;8.952;2022-10-22T12:32:46;100542.78;;;21.57;100.00
4586;BME280;2305;50.118;8.952;2022-10-22T12:35:16;100542.84;;;21.78;100.00
4586;BME280;2305;50.118;8.952;2022-10-22T12:37:48;100544.03;;;21.97;100.00
4586;BME280;2305;50.118;8.952;2022-10-22T12:40:18;100546.34;;;22.00;100.00
4586;BME280;2305;50.118;8.952;2022-10-22T12:42:48;100544.19;;;21.89;100.00
4586;BME280;2305;50.118;8.952;2022-10-22T12:45:17;100544.25;;;21.60;100.00
4586;BME280;2305;50.118;8.952;2022-10-22T12:47:47;100544.75;;;21.49;100.00
4586;BME280;2305;50.118;8.952;2022-10-22T12:50:17;100546.25;;;21.37;100.00
4586;BME280;2305;50.118;8.952;2022-10-22T12:52:47;100547.69;;;21.18;100.00
4586;BME280;2305;50.118;8.952;2022-10-22T12:55:16;100543.97;;;21.19;100.00
4586;BME280;2305;50.118;8.952;2022-10-22T12:57:47;100541.88;;;21.15;100.00
4586;BME280;2305;50.118;8.952;2022-10-22T13:00:21;100550.94;;;21.14;100.00
4586;BME280;2305;50.118;8.952;2022-10-22T13:02:52;100547.22;;;21.15;100.00
4586;BME280;2305;50.118;8.952;2022-10-22T13:05:22;100544.72;;;21.28;100.00
4586;BME280;2305;50.118;8.952;2022-10-22T13:07:54;100542.75;;;21.72;100.00
4586;BME280;2305;50.118;8.952;2022-10-22T13:10:31;100550.75;;;22.07;100.00
4586;BME280;2305;50.118;8.952;2022-10-22T13:12:59;100548.47;;;22.53;100.00
4586;BME280;2305;50.118;8.952;2022-10-22T13:15:36;100555.44;;;22.75;100.00
4586;BME280;2305;50.118;8.952;2022-10-22T13:18:16;100545.19;;;23.32;100.00
4586;BME280;2305;50.118;8.952;2022-10-22T13:20:53;100545.59;;;24.34;100.00
4586;BME280;2305;50.118;8.952;2022-10-22T13:23:23;100533.13;;;24.72;100.00
4586;BME280;2305;50.118;8.952;2022-10-22T13:25:59;100539.81;;;24.18;100.00